sensor_id;sensor_type;location;lat;lon;timestamp;P1;durP1;ratioP1;P2;durP2;ratioP2
35494;SDS011;21608;49.300;6.846;2022-10-17T00:02:17;7.25;;;5.28;;
35494;SDS011;21608;49.300;6.846;2022-10-17T00:05:18;8.90;;;6.28;;
35494;SDS011;21608;49.300;6.846;2022-10-17T00:08:20;7.55;;;5.93;;
35494;SDS011;21608;49.300;6.846;2022-10-17T00:11:22;7.60;;;5.55;;
35494;SDS011;21608;49.300;6.846;2022-10-17T00:14:24;6.10;;;5.40;;
35494;SDS011;21608;49.300;6.846;2022-10-17T00:17:26;7.53;;;5.78;;
35494;SDS011;21608;49.300;6.846;2022-10-17T00:20:28;7.07;;;6.15;;
35494;SDS011;21608;49.300;6.846;2022-10-17T00:23:33;9.13;;;5.82;;
35494;SDS011;21608;49.300;6.846;2022-10-17T00:26:34;7.95;;;5.55;;
35494;SDS011;21608;49.300;6.846;2022-10-17T00:29:36;12.02;;;5.40;;
35494;SDS011;21608;49.300;6.846;2022-10-17T00:32:38;12.52;;;5.85;;
35494;SDS011;21608;49.300;6.846;2022-10-17T00:35:40;8.52;;;5.63;;
35494;SDS011;21608;49.300;6.846;2022-10-17T00:38:44;9.65;;;5.05;;
35494;SDS011;21608;49.300;6.846;2022-10-17T00:41:46;7.70;;;5.63;;
35494;SDS011;21608;49.300;6.846;2022-10-17T00:47:52;6.63;;;5.38;;
35494;SDS011;21608;49.300;6.846;2022-10-17T00:51:04;6.70;;;5.03;;
35494;SDS011;21608;49.300;6.846;2022-10-17T00:54:06;7.05;;;5.50;;
35494;SDS011;21608;49.300;6.846;2022-10-17T00:57:09;7.97;;;5.80;;
35494;SDS011;21608;49.300;6.846;2022-10-17T01:00:12;8.50;;;5.10;;
35494;SDS011;21608;49.300;6.846;2022-10-17T01:03:15;8.98;;;5.53;;
35494;SDS011;21608;49.300;6.846;2022-10-17T01:06:16;6.72;;;5.45;;
35494;SDS011;21608;49.300;6.846;2022-10-17T01:09:18;7.63;;;5.25;;
35494;SDS011;21608;49.300;6.846;2022-10-17T01:15:35;5.60;;;4.95;;
35494;SDS011;21608;49.300;6.846;2022-10-17T01:21:53;6.15;;;5.03;;
35494;SDS011;21608;49.300;6.846;2022-10-17T01:25:19;6.97;;;5.53;;
35494;SDS011;21608;49.300;6.846;2022-10-17T01:32:04;5.40;;;4.88;;
35494;SDS011;21608;49.300;6.846;2022-10-17T01:35:22;6.63;;;4.53;;
35494;SDS011;21608;49.300;6.846;2022-10-17T01:38:50;7.88;;;4.80;;
35494;SDS011;21608;49.300;6.846;2022-10-17T01:42:01;6.93;;;5.28;;
35494;SDS011;21608;49.300;6.846;2022-10-17T01:45:18;5.85;;;5.22;;
35494;SDS011;21608;49.300;6.846;2022-10-17T01:48:26;7.72;;;5.45;;
35494;SDS011;21608;49.300;6.846;2022-10-17T01:54:57;6.28;;;5.03;;
35494;SDS011;21608;49.300;6.846;2022-10-17T01:58:06;6.03;;;5.05;;
35494;SDS011;21608;49.300;6.846;2022-10-17T02:01:16;7.50;;;5.60;;
35494;SDS011;21608;49.300;6.846;2022-10-17T02:04:21;6.07;;;4.97;;
35494;SDS011;21608;49.300;6.846;2022-10-17T02:07:23;7.32;;;5.25;;
35494;SDS011;21608;49.300;6.846;2022-10-17T02:13:59;5.78;;;4.78;;
35494;SDS011;21608;49.300;6.846;2022-10-17T02:23:43;5.50;;;4.88;;
35494;SDS011;21608;49.300;6.846;2022-10-17T02:27:13;7.03;;;4.22;;
35494;SDS011;21608;49.300;6.846;2022-10-17T02:33:27;6.60;;;4.57;;
35494;SDS011;21608;49.300;6.846;2022-10-17T02:36:46;5.25;;;4.20;;
35494;SDS011;21608;49.300;6.846;2022-10-17T02:39:52;6.25;;;5.07;;
35494;SDS011;21608;49.300;6.846;2022-10-17T02:42:57;5.28;;;4.20;;
35494;SDS011;21608;49.300;6.846;2022-10-17T02:45:59;6.50;;;4.68;;
35494;SDS011;21608;49.300;6.846;2022-10-17T02:49:02;5.15;;;4.75;;
35494;SDS011;21608;49.300;6.846;2022-10-17T02:52:17;5.18;;;4.20;;
35494;SDS011;21608;49.300;6.846;2022-10-17T02:55:31;5.35;;;4.75;;
35494;SDS011;21608;49.300;6.846;2022-10-17T02:58:36;5.22;;;4.32;;
35494;SDS011;21608;49.300;6.846;2022-10-17T03:01:39;4.93;;;4.30;;
35494;SDS011;21608;49.300;6.846;2022-10-17T03:04:42;4.95;;;4.55;;
35494;SDS011;21608;49.300;6.846;2022-10-17T03:07:45;5.00;;;4.43;;
35494;SDS011;21608;49.300;6.846;2022-10-17T03:10:48;5.32;;;4.22;;
35494;SDS011;21608;49.300;6.846;2022-10-17T03:13:50;4.47;;;4.05;;
35494;SDS011;21608;49.300;6.846;2022-10-17T03:16:52;6.38;;;4.32;;
35494;SDS011;21608;49.300;6.846;2022-10-17T03:19:53;7.32;;;4.70;;
35494;SDS011;21608;49.300;6.846;2022-10-17T03:22:55;5.68;;;4.70;;
35494;SDS011;21608;49.300;6.846;2022-10-17T03:25:57;4.75;;;4.28;;
35494;SDS011;21608;49.300;6.846;2022-10-17T03:28:59;7.90;;;5.28;;
35494;SDS011;21608;49.300;6.846;2022-10-17T03:32:02;9.77;;;4.53;;
35494;SDS011;21608;49.300;6.846;2022-10-17T03:35:04;5.10;;;4.38;;
35494;SDS011;21608;49.300;6.846;2022-10-17T03:38:08;4.40;;;4.00;;
35494;SDS011;21608;49.300;6.846;2022-10-17T03:41:10;5.75;;;4.57;;
35494;SDS011;21608;49.300;6.846;2022-10-17T03:44:13;4.63;;;4.07;;
35494;SDS011;21608;49.300;6.846;2022-10-17T03:47:14;6.72;;;4.90;;
35494;SDS011;21608;49.300;6.846;2022-10-17T03:50:17;6.93;;;4.03;;
35494;SDS011;21608;49.300;6.846;2022-10-17T03:53:19;5.00;;;4.28;;
35494;SDS011;21608;49.300;6.846;2022-10-17T03:56:22;5.30;;;4.45;;
35494;SDS011;21608;49.300;6.846;2022-10-17T03:59:36;5.63;;;4.05;;
35494;SDS011;21608;49.300;6.846;2022-10-17T04:02:46;4.75;;;4.13;;
35494;SDS011;21608;49.300;6.846;2022-10-17T04:05:52;5.57;;;4.00;;
35494;SDS011;21608;49.300;6.846;2022-10-17T04:08:53;4.57;;;4.18;;
35494;SDS011;21608;49.300;6.846;2022-10-17T04:12:00;4.90;;;4.50;;
35494;SDS011;21608;49.300;6.846;2022-10-17T04:15:04;5.03;;;4.53;;
35494;SDS011;21608;49.300;6.846;2022-10-17T04:18:06;4.70;;;4.00;;
35494;SDS011;21608;49.300;6.846;2022-10-17T04:21:08;4.65;;;4.22;;
35494;SDS011;21608;49.300;6.846;2022-10-17T04:24:12;5.35;;;3.83;;
35494;SDS011;21608;49.300;6.846;2022-10-17T04:27:21;5.68;;;4.63;;
35494;SDS011;21608;49.300;6.846;2022-10-17T04:30:24;4.20;;;3.80;;
35494;SDS011;21608;49.300;6.846;2022-10-17T04:33:26;3.92;;;3.63;;
35494;SDS011;21608;49.300;6.846;2022-10-17T04:36:28;4.85;;;4.00;;
35494;SDS011;21608;49.300;6.846;2022-10-17T04:39:30;4.30;;;3.92;;
35494;SDS011;21608;49.300;6.846;2022-10-17T04:42:32;4.50;;;4.05;;
35494;SDS011;21608;49.300;6.846;2022-10-17T04:45:34;4.07;;;3.40;;
35494;SDS011;21608;49.300;6.846;2022-10-17T04:48:38;4.93;;;4.03;;
35494;SDS011;21608;49.300;6.846;2022-10-17T04:51:41;6.05;;;3.60;;
35494;SDS011;21608;49.300;6.846;2022-10-17T04:54:56;4.70;;;4.20;;
35494;SDS011;21608;49.300;6.846;2022-10-17T04:57:58;6.32;;;4.40;;
35494;SDS011;21608;49.300;6.846;2022-10-17T05:01:03;7.85;;;4.15;;
35494;SDS011;21608;49.300;6.846;2022-10-17T05:04:09;8.07;;;4.30;;
35494;SDS011;21608;49.300;6.846;2022-10-17T05:07:12;6.03;;;4.28;;
35494;SDS011;21608;49.300;6.846;2022-10-17T05:10:21;10.88;;;4.38;;
35494;SDS011;21608;49.300;6.846;2022-10-17T05:13:25;5.10;;;4.00;;
35494;SDS011;21608;49.300;6.846;2022-10-17T05:16:28;5.30;;;4.28;;
35494;SDS011;21608;49.300;6.846;2022-10-17T05:19:30;6.88;;;3.97;;
35494;SDS011;21608;49.300;6.846;2022-10-17T05:22:32;5.30;;;3.78;;
35494;SDS011;21608;49.300;6.846;2022-10-17T05:25:41;6.97;;;4.90;;
35494;SDS011;21608;49.300;6.846;2022-10-17T05:28:43;4.55;;;4.15;;
35494;SDS011;21608;49.300;6.846;2022-10-17T05:31:45;5.97;;;4.00;;
35494;SDS011;21608;49.300;6.846;2022-10-17T05:34:47;7.28;;;4.18;;
35494;SDS011;21608;49.300;6.846;2022-10-17T05:37:48;4.75;;;4.13;;
35494;SDS011;21608;49.300;6.846;2022-10-17T05:40:55;8.13;;;4.68;;
35494;SDS011;21608;49.300;6.846;2022-10-17T05:43:58;4.95;;;4.40;;
35494;SDS011;21608;49.300;6.846;2022-10-17T05:47:14;8.18;;;3.90;;
35494;SDS011;21608;49.300;6.846;2022-10-17T05:50:17;4.75;;;4.25;;
35494;SDS011;21608;49.300;6.846;2022-10-17T05:53:35;6.32;;;4.30;;
35494;SDS011;21608;49.300;6.846;2022-10-17T05:56:42;5.57;;;4.20;;
35494;SDS011;21608;49.300;6.846;2022-10-17T05:59:43;7.20;;;4.32;;
35494;SDS011;21608;49.300;6.846;2022-10-17T06:02:48;7.35;;;4.15;;
35494;SDS011;21608;49.300;6.846;2022-10-17T06:05:52;7.03;;;4.28;;
35494;SDS011;21608;49.300;6.846;2022-10-17T06:08:54;7.70;;;4.10;;
35494;SDS011;21608;49.300;6.846;2022-10-17T06:12:02;5.75;;;4.18;;
35494;SDS011;21608;49.300;6.846;2022-10-17T06:15:03;4.82;;;3.97;;
35494;SDS011;21608;49.300;6.846;2022-10-17T06:18:07;5.50;;;4.57;;
35494;SDS011;21608;49.300;6.846;2022-10-17T06:21:10;7.95;;;4.43;;
35494;SDS011;21608;49.300;6.846;2022-10-17T06:24:18;5.57;;;3.72;;
35494;SDS011;21608;49.300;6.846;2022-10-17T06:27:20;4.35;;;3.90;;
35494;SDS011;21608;49.300;6.846;2022-10-17T06:30:23;4.57;;;4.15;;
35494;SDS011;21608;49.300;6.846;2022-10-17T06:33:24;4.15;;;3.72;;
35494;SDS011;21608;49.300;6.846;2022-10-17T06:36:26;4.63;;;4.00;;
35494;SDS011;21608;49.300;6.846;2022-10-17T06:39:28;4.53;;;3.55;;
35494;SDS011;21608;49.300;6.846;2022-10-17T06:42:39;5.40;;;4.18;;
35494;SDS011;21608;49.300;6.846;2022-10-17T06:45:56;6.53;;;4.57;;
35494;SDS011;21608;49.300;6.846;2022-10-17T06:49:09;5.78;;;3.85;;
35494;SDS011;21608;49.300;6.846;2022-10-17T06:52:34;4.32;;;3.45;;
35494;SDS011;21608;49.300;6.846;2022-10-17T06:55:54;6.00;;;4.63;;
35494;SDS011;21608;49.300;6.846;2022-10-17T06:59:14;5.05;;;4.18;;
35494;SDS011;21608;49.300;6.846;2022-10-17T07:02:23;5.60;;;4.60;;
35494;SDS011;21608;49.300;6.846;2022-10-17T07:05:26;5.57;;;4.30;;
35494;SDS011;21608;49.300;6.846;2022-10-17T07:08:28;4.68;;;4.05;;
35494;SDS011;21608;49.300;6.846;2022-10-17T07:11:31;5.10;;;4.18;;
35494;SDS011;21608;49.300;6.846;2022-10-17T07:14:37;4.53;;;4.07;;
35494;SDS011;21608;49.300;6.846;2022-10-17T07:17:38;6.32;;;4.30;;
35494;SDS011;21608;49.300;6.846;2022-10-17T07:20:40;8.10;;;3.42;;
35494;SDS011;21608;49.300;6.846;2022-10-17T07:23:42;4.00;;;3.70;;
35494;SDS011;21608;49.300;6.846;2022-10-17T07:26:44;4.72;;;3.60;;
35494;SDS011;21608;49.300;6.846;2022-10-17T07:29:46;4.70;;;3.80;;
35494;SDS011;21608;49.300;6.846;2022-10-17T07:33:05;6.13;;;4.05;;
35494;SDS011;21608;49.300;6.846;2022-10-17T07:36:08;3.95;;;3.55;;
35494;SDS011;21608;49.300;6.846;2022-10-17T07:39:10;5.78;;;3.72;;
35494;SDS011;21608;49.300;6.846;2022-10-17T07:42:13;8.13;;;3.92;;
35494;SDS011;21608;49.300;6.846;2022-10-17T07:45:15;4.93;;;3.80;;
35494;SDS011;21608;49.300;6.846;2022-10-17T07:48:18;3.42;;;3.13;;
35494;SDS011;21608;49.300;6.846;2022-10-17T07:51:20;3.92;;;3.63;;
35494;SDS011;21608;49.300;6.846;2022-10-17T07:54:22;4.28;;;3.83;;
35494;SDS011;21608;49.300;6.846;2022-10-17T07:57:24;4.47;;;3.25;;
35494;SDS011;21608;49.300;6.846;2022-10-17T08:00:26;4.32;;;3.50;;
35494;SDS011;21608;49.300;6.846;2022-10-17T08:03:27;3.88;;;3.45;;
35494;SDS011;21608;49.300;6.846;2022-10-17T08:06:29;4.45;;;3.35;;
35494;SDS011;21608;49.300;6.846;2022-10-17T08:09:31;4.00;;;3.30;;
35494;SDS011;21608;49.300;6.846;2022-10-17T08:12:33;3.88;;;3.40;;
35494;SDS011;21608;49.300;6.846;2022-10-17T08:15:36;4.05;;;3.72;;
35494;SDS011;21608;49.300;6.846;2022-10-17T08:18:41;4.40;;;3.53;;
35494;SDS011;21608;49.300;6.846;2022-10-17T08:21:43;3.70;;;3.40;;
35494;SDS011;21608;49.300;6.846;2022-10-17T08:24:46;4.40;;;3.90;;
35494;SDS011;21608;49.300;6.846;2022-10-17T08:27:48;7.10;;;3.45;;
35494;SDS011;21608;49.300;6.846;2022-10-17T08:31:17;5.97;;;3.70;;
35494;SDS011;21608;49.300;6.846;2022-10-17T08:34:19;4.25;;;3.40;;
35494;SDS011;21608;49.300;6.846;2022-10-17T08:37:21;4.18;;;3.20;;
35494;SDS011;21608;49.300;6.846;2022-10-17T08:40:24;4.78;;;3.97;;
35494;SDS011;21608;49.300;6.846;2022-10-17T08:43:48;5.63;;;3.88;;
35494;SDS011;21608;49.300;6.846;2022-10-17T08:47:11;6.30;;;4.53;;
35494;SDS011;21608;49.300;6.846;2022-10-17T08:50:35;4.53;;;3.63;;
35494;SDS011;21608;49.300;6.846;2022-10-17T08:53:54;5.95;;;3.70;;
35494;SDS011;21608;49.300;6.846;2022-10-17T08:57:17;5.85;;;4.50;;
35494;SDS011;21608;49.300;6.846;2022-10-17T09:00:20;6.03;;;4.30;;
35494;SDS011;21608;49.300;6.846;2022-10-17T09:03:31;5.88;;;3.65;;
35494;SDS011;21608;49.300;6.846;2022-10-17T09:06:44;4.80;;;4.35;;
35494;SDS011;21608;49.300;6.846;2022-10-17T09:16:59;5.10;;;4.03;;
35494;SDS011;21608;49.300;6.846;2022-10-17T09:20:33;5.90;;;4.53;;
35494;SDS011;21608;49.300;6.846;2022-10-17T09:23:49;6.60;;;4.05;;
35494;SDS011;21608;49.300;6.846;2022-10-17T09:30:36;4.18;;;3.83;;
35494;SDS011;21608;49.300;6.846;2022-10-17T09:33:47;6.43;;;3.95;;
35494;SDS011;21608;49.300;6.846;2022-10-17T09:36:56;5.72;;;3.90;;
35494;SDS011;21608;49.300;6.846;2022-10-17T09:39:59;7.18;;;4.00;;
35494;SDS011;21608;49.300;6.846;2022-10-17T09:43:02;5.50;;;3.72;;
35494;SDS011;21608;49.300;6.846;2022-10-17T09:46:13;6.05;;;4.30;;
35494;SDS011;21608;49.300;6.846;2022-10-17T09:49:38;6.05;;;4.00;;
35494;SDS011;21608;49.300;6.846;2022-10-17T09:52:45;4.65;;;3.95;;
35494;SDS011;21608;49.300;6.846;2022-10-17T09:55:54;6.70;;;4.07;;
35494;SDS011;21608;49.300;6.846;2022-10-17T09:59:01;5.47;;;3.83;;
35494;SDS011;21608;49.300;6.846;2022-10-17T10:05:19;6.40;;;3.80;;
35494;SDS011;21608;49.300;6.846;2022-10-17T10:08:21;5.05;;;4.05;;
35494;SDS011;21608;49.300;6.846;2022-10-17T10:14:48;5.53;;;4.10;;
35494;SDS011;21608;49.300;6.846;2022-10-17T10:17:55;4.40;;;3.80;;
35494;SDS011;21608;49.300;6.846;2022-10-17T10:21:07;4.38;;;3.55;;
35494;SDS011;21608;49.300;6.846;2022-10-17T10:24:12;5.78;;;4.03;;
35494;SDS011;21608;49.300;6.846;2022-10-17T10:27:15;5.65;;;3.85;;
35494;SDS011;21608;49.300;6.846;2022-10-17T10:30:20;4.30;;;3.83;;
35494;SDS011;21608;49.300;6.846;2022-10-17T10:36:42;4.70;;;3.70;;
35494;SDS011;21608;49.300;6.846;2022-10-17T10:39:54;5.30;;;3.95;;
35494;SDS011;21608;49.300;6.846;2022-10-17T10:42:58;7.05;;;3.75;;
35494;SDS011;21608;49.300;6.846;2022-10-17T10:46:19;5.40;;;3.75;;
35494;SDS011;21608;49.300;6.846;2022-10-17T10:49:28;5.15;;;3.85;;
35494;SDS011;21608;49.300;6.846;2022-10-17T10:52:39;4.07;;;3.13;;
35494;SDS011;21608;49.300;6.846;2022-10-17T10:59:08;5.93;;;3.47;;
35494;SDS011;21608;49.300;6.846;2022-10-17T11:02:43;5.47;;;3.65;;
35494;SDS011;21608;49.300;6.846;2022-10-17T11:09:03;5.13;;;3.67;;
35494;SDS011;21608;49.300;6.846;2022-10-17T11:12:32;6.25;;;3.67;;
35494;SDS011;21608;49.300;6.846;2022-10-17T11:15:41;3.83;;;3.20;;
35494;SDS011;21608;49.300;6.846;2022-10-17T11:19:12;4.10;;;3.70;;
35494;SDS011;21608;49.300;6.846;2022-10-17T11:22:36;4.10;;;3.63;;
35494;SDS011;21608;49.300;6.846;2022-10-17T11:25:42;3.45;;;3.05;;
35494;SDS011;21608;49.300;6.846;2022-10-17T11:28:43;4.55;;;3.67;;
35494;SDS011;21608;49.300;6.846;2022-10-17T11:31:46;4.85;;;3.65;;
35494;SDS011;21608;49.300;6.846;2022-10-17T11:34:58;5.20;;;3.90;;
35494;SDS011;21608;49.300;6.846;2022-10-17T11:44:43;3.97;;;3.58;;
35494;SDS011;21608;49.300;6.846;2022-10-17T11:50:59;4.70;;;3.55;;
35494;SDS011;21608;49.300;6.846;2022-10-17T11:57:55;4.47;;;3.55;;
35494;SDS011;21608;49.300;6.846;2022-10-17T12:04:39;3.95;;;3.30;;
35494;SDS011;21608;49.300;6.846;2022-10-17T12:08:04;4.78;;;3.95;;
35494;SDS011;21608;49.300;6.846;2022-10-17T12:11:41;5.95;;;2.95;;
35494;SDS011;21608;49.300;6.846;2022-10-17T12:14:45;4.20;;;2.95;;
35494;SDS011;21608;49.300;6.846;2022-10-17T12:17:54;4.28;;;3.28;;
35494;SDS011;21608;49.300;6.846;2022-10-17T12:21:03;3.50;;;2.88;;
35494;SDS011;21608;49.300;6.846;2022-10-17T12:24:12;4.82;;;3.38;;
35494;SDS011;21608;49.300;6.846;2022-10-17T12:27:36;5.20;;;3.53;;
35494;SDS011;21608;49.300;6.846;2022-10-17T12:34:14;7.88;;;4.28;;
35494;SDS011;21608;49.300;6.846;2022-10-17T12:43:53;7.03;;;4.93;;
35494;SDS011;21608;49.300;6.846;2022-10-17T12:46:55;7.43;;;5.47;;
35494;SDS011;21608;49.300;6.846;2022-10-17T12:49:58;10.77;;;5.05;;
35494;SDS011;21608;49.300;6.846;2022-10-17T12:53:02;9.38;;;5.47;;
35494;SDS011;21608;49.300;6.846;2022-10-17T12:56:06;7.38;;;5.63;;
35494;SDS011;21608;49.300;6.846;2022-10-17T12:59:13;7.22;;;5.85;;
35494;SDS011;21608;49.300;6.846;2022-10-17T13:02:27;7.05;;;5.10;;
35494;SDS011;21608;49.300;6.846;2022-10-17T13:05:34;8.82;;;5.57;;
35494;SDS011;21608;49.300;6.846;2022-10-17T13:08:38;8.07;;;5.78;;
35494;SDS011;21608;49.300;6.846;2022-10-17T13:11:48;8.18;;;5.70;;
35494;SDS011;21608;49.300;6.846;2022-10-17T13:14:50;7.18;;;4.90;;
35494;SDS011;21608;49.300;6.846;2022-10-17T13:17:58;8.32;;;5.65;;
35494;SDS011;21608;49.300;6.846;2022-10-17T13:21:13;5.55;;;5.05;;
35494;SDS011;21608;49.300;6.846;2022-10-17T13:24:20;6.03;;;5.03;;
35494;SDS011;21608;49.300;6.846;2022-10-17T13:27:34;7.70;;;5.45;;
35494;SDS011;21608;49.300;6.846;2022-10-17T13:30:36;8.10;;;5.63;;
35494;SDS011;21608;49.300;6.846;2022-10-17T13:33:39;7.10;;;4.93;;
35494;SDS011;21608;49.300;6.846;2022-10-17T13:36:42;7.03;;;5.35;;
35494;SDS011;21608;49.300;6.846;2022-10-17T13:39:49;6.70;;;5.30;;
35494;SDS011;21608;49.300;6.846;2022-10-17T13:43:10;6.22;;;5.28;;
35494;SDS011;21608;49.300;6.846;2022-10-17T13:46:37;6.32;;;5.55;;
35494;SDS011;21608;49.300;6.846;2022-10-17T13:49:40;8.77;;;5.53;;
35494;SDS011;21608;49.300;6.846;2022-10-17T13:52:43;6.55;;;4.63;;
35494;SDS011;21608;49.300;6.846;2022-10-17T13:59:21;7.03;;;4.50;;
35494;SDS011;21608;49.300;6.846;2022-10-17T14:02:26;7.82;;;4.93;;
35494;SDS011;21608;49.300;6.846;2022-10-17T14:05:29;6.53;;;5.20;;
35494;SDS011;21608;49.300;6.846;2022-10-17T14:08:34;7.55;;;5.10;;
35494;SDS011;21608;49.300;6.846;2022-10-17T14:11:41;6.47;;;4.90;;
35494;SDS011;21608;49.300;6.846;2022-10-17T14:14:49;7.10;;;5.28;;
35494;SDS011;21608;49.300;6.846;2022-10-17T14:18:16;7.82;;;4.68;;
35494;SDS011;21608;49.300;6.846;2022-10-17T14:21:25;6.30;;;4.70;;
35494;SDS011;21608;49.300;6.846;2022-10-17T14:24:44;5.05;;;4.55;;
35494;SDS011;21608;49.300;6.846;2022-10-17T14:27:53;9.20;;;4.40;;
35494;SDS011;21608;49.300;6.846;2022-10-17T14:34:38;6.00;;;4.57;;
35494;SDS011;21608;49.300;6.846;2022-10-17T14:37:44;9.82;;;4.85;;
35494;SDS011;21608;49.300;6.846;2022-10-17T14:40:49;6.18;;;4.88;;
35494;SDS011;21608;49.300;6.846;2022-10-17T14:43:56;8.75;;;4.43;;
35494;SDS011;21608;49.300;6.846;2022-10-17T14:47:01;4.80;;;4.28;;
35494;SDS011;21608;49.300;6.846;2022-10-17T14:50:26;6.60;;;4.43;;
35494;SDS011;21608;49.300;6.846;2022-10-17T14:53:29;4.30;;;3.95;;
35494;SDS011;21608;49.300;6.846;2022-10-17T14:56:39;5.82;;;4.00;;
35494;SDS011;21608;49.300;6.846;2022-10-17T14:59:42;5.47;;;3.88;;
35494;SDS011;21608;49.300;6.846;2022-10-17T15:02:54;5.40;;;4.32;;
35494;SDS011;21608;49.300;6.846;2022-10-17T15:05:56;5.32;;;3.63;;
35494;SDS011;21608;49.300;6.846;2022-10-17T15:08:59;5.70;;;4.00;;
35494;SDS011;21608;49.300;6.846;2022-10-17T15:12:01;5.93;;;4.50;;
35494;SDS011;21608;49.300;6.846;2022-10-17T15:15:07;6.45;;;4.03;;
35494;SDS011;21608;49.300;6.846;2022-10-17T15:18:09;6.25;;;4.22;;
35494;SDS011;21608;49.300;6.846;2022-10-17T15:21:12;4.40;;;4.00;;
35494;SDS011;21608;49.300;6.846;2022-10-17T15:24:35;4.47;;;4.07;;
35494;SDS011;21608;49.300;6.846;2022-10-17T15:27:37;5.00;;;4.10;;
35494;SDS011;21608;49.300;6.846;2022-10-17T15:30:38;4.70;;;3.83;;
35494;SDS011;21608;49.300;6.846;2022-10-17T15:33:40;4.88;;;4.20;;
35494;SDS011;21608;49.300;6.846;2022-10-17T15:36:47;5.25;;;3.72;;
35494;SDS011;21608;49.300;6.846;2022-10-17T15:39:53;4.82;;;4.15;;
35494;SDS011;21608;49.300;6.846;2022-10-17T15:42:56;7.10;;;3.83;;
35494;SDS011;21608;49.300;6.846;2022-10-17T15:45:58;5.68;;;3.40;;
35494;SDS011;21608;49.300;6.846;2022-10-17T15:49:02;5.05;;;4.20;;
35494;SDS011;21608;49.300;6.846;2022-10-17T15:52:07;5.13;;;3.95;;
35494;SDS011;21608;49.300;6.846;2022-10-17T15:55:09;4.88;;;4.03;;
35494;SDS011;21608;49.300;6.846;2022-10-17T15:58:13;5.85;;;4.10;;
35494;SDS011;21608;49.300;6.846;2022-10-17T16:01:20;3.78;;;3.40;;
35494;SDS011;21608;49.300;6.846;2022-10-17T16:04:24;4.82;;;3.45;;
35494;SDS011;21608;49.300;6.846;2022-10-17T16:07:27;6.95;;;3.50;;
35494;SDS011;21608;49.300;6.846;2022-10-17T16:10:29;4.18;;;3.80;;
35494;SDS011;21608;49.300;6.846;2022-10-17T16:13:31;6.25;;;3.78;;
35494;SDS011;21608;49.300;6.846;2022-10-17T16:16:34;3.95;;;3.55;;
35494;SDS011;21608;49.300;6.846;2022-10-17T16:19:35;5.03;;;3.65;;
35494;SDS011;21608;49.300;6.846;2022-10-17T16:22:37;4.10;;;3.45;;
35494;SDS011;21608;49.300;6.846;2022-10-17T16:25:42;3.83;;;3.47;;
35494;SDS011;21608;49.300;6.846;2022-10-17T16:28:44;5.60;;;3.78;;
35494;SDS011;21608;49.300;6.846;2022-10-17T16:31:46;5.75;;;3.80;;
35494;SDS011;21608;49.300;6.846;2022-10-17T16:34:48;4.05;;;3.65;;
35494;SDS011;21608;49.300;6.846;2022-10-17T16:37:50;8.38;;;3.78;;
35494;SDS011;21608;49.300;6.846;2022-10-17T16:40:52;4.50;;;3.72;;
35494;SDS011;21608;49.300;6.846;2022-10-17T16:43:55;5.57;;;3.80;;
35494;SDS011;21608;49.300;6.846;2022-10-17T16:47:01;3.88;;;3.58;;
35494;SDS011;21608;49.300;6.846;2022-10-17T16:50:03;4.15;;;3.65;;
35494;SDS011;21608;49.300;6.846;2022-10-17T16:53:05;4.70;;;3.17;;
35494;SDS011;21608;49.300;6.846;2022-10-17T16:56:08;6.68;;;3.60;;
35494;SDS011;21608;49.300;6.846;2022-10-17T16:59:14;4.10;;;3.67;;
35494;SDS011;21608;49.300;6.846;2022-10-17T17:02:16;5.00;;;3.60;;
35494;SDS011;21608;49.300;6.846;2022-10-17T17:05:21;10.60;;;3.90;;
35494;SDS011;21608;49.300;6.846;2022-10-17T17:08:23;3.60;;;3.10;;
35494;SDS011;21608;49.300;6.846;2022-10-17T17:11:26;7.78;;;3.58;;
35494;SDS011;21608;49.300;6.846;2022-10-17T17:14:28;4.47;;;3.45;;
35494;SDS011;21608;49.300;6.846;2022-10-17T17:17:30;6.03;;;3.40;;
35494;SDS011;21608;49.300;6.846;2022-10-17T17:20:49;4.47;;;3.28;;
35494;SDS011;21608;49.300;6.846;2022-10-17T17:23:51;7.18;;;3.53;;
35494;SDS011;21608;49.300;6.846;2022-10-17T17:26:54;3.42;;;3.13;;
35494;SDS011;21608;49.300;6.846;2022-10-17T17:29:56;3.25;;;2.92;;
35494;SDS011;21608;49.300;6.846;2022-10-17T17:32:58;3.47;;;3.15;;
35494;SDS011;21608;49.300;6.846;2022-10-17T17:36:01;5.13;;;3.53;;
35494;SDS011;21608;49.300;6.846;2022-10-17T17:39:03;3.72;;;2.90;;
35494;SDS011;21608;49.300;6.846;2022-10-17T17:42:08;5.13;;;3.45;;
35494;SDS011;21608;49.300;6.846;2022-10-17T17:45:09;3.50;;;3.20;;
35494;SDS011;21608;49.300;6.846;2022-10-17T17:48:11;2.80;;;2.60;;
35494;SDS011;21608;49.300;6.846;2022-10-17T17:51:14;6.97;;;3.30;;
35494;SDS011;21608;49.300;6.846;2022-10-17T17:54:17;3.83;;;3.50;;
35494;SDS011;21608;49.300;6.846;2022-10-17T17:57:19;3.88;;;3.47;;
35494;SDS011;21608;49.300;6.846;2022-10-17T18:00:21;3.63;;;3.33;;
35494;SDS011;21608;49.300;6.846;2022-10-17T18:03:23;3.25;;;2.95;;
35494;SDS011;21608;49.300;6.846;2022-10-17T18:06:26;6.80;;;3.47;;
35494;SDS011;21608;49.300;6.846;2022-10-17T18:09:28;4.05;;;3.28;;
35494;SDS011;21608;49.300;6.846;2022-10-17T18:12:30;4.65;;;3.10;;
35494;SDS011;21608;49.300;6.846;2022-10-17T18:15:33;3.42;;;3.08;;
35494;SDS011;21608;49.300;6.846;2022-10-17T18:18:34;7.45;;;3.60;;
35494;SDS011;21608;49.300;6.846;2022-10-17T18:21:36;3.53;;;3.22;;
35494;SDS011;21608;49.300;6.846;2022-10-17T18:24:38;4.05;;;3.63;;
35494;SDS011;21608;49.300;6.846;2022-10-17T18:27:40;3.35;;;2.70;;
35494;SDS011;21608;49.300;6.846;2022-10-17T18:30:42;3.40;;;3.10;;
35494;SDS011;21608;49.300;6.846;2022-10-17T18:33:44;3.95;;;2.97;;
35494;SDS011;21608;49.300;6.846;2022-10-17T18:36:46;4.03;;;3.25;;
35494;SDS011;21608;49.300;6.846;2022-10-17T18:39:48;4.05;;;3.13;;
35494;SDS011;21608;49.300;6.846;2022-10-17T18:42:51;5.10;;;3.25;;
35494;SDS011;21608;49.300;6.846;2022-10-17T18:45:55;3.13;;;2.80;;
35494;SDS011;21608;49.300;6.846;2022-10-17T18:52:02;5.35;;;2.85;;
35494;SDS011;21608;49.300;6.846;2022-10-17T18:55:04;4.22;;;2.63;;
35494;SDS011;21608;49.300;6.846;2022-10-17T18:58:07;3.13;;;2.80;;
35494;SDS011;21608;49.300;6.846;2022-10-17T19:01:09;3.90;;;3.20;;
35494;SDS011;21608;49.300;6.846;2022-10-17T19:04:15;3.93;;;3.00;;
35494;SDS011;21608;49.300;6.846;2022-10-17T19:07:17;3.70;;;3.13;;
35494;SDS011;21608;49.300;6.846;2022-10-17T19:10:20;3.35;;;3.05;;
35494;SDS011;21608;49.300;6.846;2022-10-17T19:13:22;4.15;;;3.15;;
35494;SDS011;21608;49.300;6.846;2022-10-17T19:16:25;4.38;;;2.92;;
35494;SDS011;21608;49.300;6.846;2022-10-17T19:19:30;4.25;;;3.03;;
35494;SDS011;21608;49.300;6.846;2022-10-17T19:22:32;3.58;;;3.22;;
35494;SDS011;21608;49.300;6.846;2022-10-17T19:25:34;3.55;;;3.17;;
35494;SDS011;21608;49.300;6.846;2022-10-17T19:28:36;3.33;;;2.80;;
35494;SDS011;21608;49.300;6.846;2022-10-17T19:31:41;4.00;;;2.90;;
35494;SDS011;21608;49.300;6.846;2022-10-17T19:34:43;3.58;;;3.15;;
35494;SDS011;21608;49.300;6.846;2022-10-17T19:37:45;3.83;;;2.72;;
35494;SDS011;21608;49.300;6.846;2022-10-17T19:40:47;3.90;;;3.10;;
35494;SDS011;21608;49.300;6.846;2022-10-17T19:43:49;4.35;;;2.95;;
35494;SDS011;21608;49.300;6.846;2022-10-17T19:46:51;4.65;;;3.40;;
35494;SDS011;21608;49.300;6.846;2022-10-17T19:49:52;3.30;;;3.00;;
35494;SDS011;21608;49.300;6.846;2022-10-17T19:52:54;3.40;;;3.10;;
35494;SDS011;21608;49.300;6.846;2022-10-17T19:55:56;5.88;;;2.92;;
35494;SDS011;21608;49.300;6.846;2022-10-17T19:58:58;4.57;;;3.10;;
35494;SDS011;21608;49.300;6.846;2022-10-17T20:02:00;4.47;;;2.95;;
35494;SDS011;21608;49.300;6.846;2022-10-17T20:05:02;3.13;;;2.83;;
35494;SDS011;21608;49.300;6.846;2022-10-17T20:08:22;3.47;;;2.88;;
35494;SDS011;21608;49.300;6.846;2022-10-17T20:11:29;3.37;;;2.73;;
35494;SDS011;21608;49.300;6.846;2022-10-17T20:14:31;4.75;;;2.45;;
35494;SDS011;21608;49.300;6.846;2022-10-17T20:17:37;5.35;;;3.08;;